createdAt,value
2018-07-12T00:01:57.677Z,9.03
2018-07-12T00:04:25.018Z,9.27
2018-07-12T00:06:52.694Z,8.93
2018-07-12T00:09:20.120Z,8.53
2018-07-12T00:11:47.742Z,8.60
2018-07-12T00:14:15.060Z,8.97
2018-07-12T00:16:42.464Z,8.83
2018-07-12T00:19:09.806Z,9.30
2018-07-12T00:21:37.127Z,8.93
2018-07-12T00:24:05.501Z,8.10
2018-07-12T00:26:32.861Z,8.93
2018-07-12T00:29:00.258Z,8.97
2018-07-12T00:31:27.897Z,8.57
2018-07-12T00:33:55.210Z,9.30
2018-07-12T00:36:22.528Z,8.57
2018-07-12T00:38:49.861Z,9.70
2018-07-12T00:41:17.277Z,8.20
2018-07-12T00:43:44.632Z,9.83
2018-07-12T00:46:11.978Z,8.27
2018-07-12T00:48:39.481Z,10.27
2018-07-12T00:51:06.912Z,8.43
2018-07-12T00:53:34.483Z,9.13
2018-07-12T00:56:01.805Z,10.03
2018-07-12T00:58:29.174Z,10.37
2018-07-12T01:00:56.517Z,10.57
2018-07-12T01:03:24.508Z,11.50
2018-07-12T01:05:51.816Z,11.63
2018-07-12T01:08:19.154Z,10.90
2018-07-12T01:10:46.510Z,11.20
2018-07-12T01:13:13.843Z,11.80
2018-07-12T01:15:41.182Z,11.37
2018-07-12T01:18:08.513Z,11.70
2018-07-12T01:20:36.087Z,11.03
2018-07-12T01:23:03.828Z,12.60
2018-07-12T01:25:31.148Z,12.57
2018-07-12T01:27:58.573Z,13.23
2018-07-12T01:30:25.941Z,12.77
2018-07-12T01:32:53.428Z,11.50
2018-07-12T01:35:20.760Z,12.33
2018-07-12T01:37:48.306Z,12.20
2018-07-12T01:40:15.624Z,11.50
2018-07-12T01:42:42.959Z,11.13
2018-07-12T01:45:10.310Z,12.50
2018-07-12T01:47:38.107Z,12.97
2018-07-12T01:50:05.449Z,11.87
2018-07-12T01:52:32.830Z,12.27
2018-07-12T01:55:00.205Z,12.20
2018-07-12T01:57:27.539Z,13.67
2018-07-12T01:59:54.913Z,13.43
2018-07-12T02:02:22.956Z,14.00
2018-07-12T02:04:50.260Z,15.07
2018-07-12T02:07:17.580Z,14.17
2018-07-12T02:09:45.681Z,13.60
2018-07-12T02:12:13.072Z,14.43
2018-07-12T02:14:40.470Z,13.17
2018-07-12T02:17:07.819Z,14.40
2018-07-12T02:19:35.142Z,16.03
2018-07-12T02:22:02.480Z,14.47
2018-07-12T02:24:29.939Z,14.97
2018-07-12T02:26:57.352Z,15.63
2018-07-12T02:29:24.743Z,14.87
2018-07-12T02:31:52.120Z,13.97
2018-07-12T02:34:19.457Z,13.83
2018-07-12T02:36:46.813Z,15.03
2018-07-12T02:39:14.151Z,14.40
2018-07-12T02:41:41.477Z,15.37
2018-07-12T02:44:08.820Z,15.67
2018-07-12T02:46:36.182Z,15.37
2018-07-12T02:49:03.566Z,14.53
2018-07-12T02:51:30.926Z,15.67
2018-07-12T02:53:58.266Z,17.03
2018-07-12T02:56:25.582Z,16.37
2018-07-12T02:58:52.960Z,16.70
2018-07-12T03:01:20.305Z,16.87
2018-07-12T03:03:47.661Z,15.87
2018-07-12T03:06:15.044Z,16.47
2018-07-12T03:08:42.559Z,16.77
2018-07-12T03:11:10.073Z,17.00
2018-07-12T03:13:37.559Z,17.23
2018-07-12T03:16:04.909Z,16.87
2018-07-12T03:18:32.295Z,16.37
2018-07-12T03:20:59.657Z,17.50
2018-07-12T03:23:27.755Z,15.60
2018-07-12T03:25:55.386Z,17.23
2018-07-12T03:28:22.730Z,16.27
2018-07-12T03:30:50.287Z,16.00
2018-07-12T03:33:17.669Z,14.90
2018-07-12T03:35:45.012Z,13.37
2018-07-12T03:38:12.615Z,13.70
2018-07-12T03:40:40.088Z,13.40
2018-07-12T03:43:07.489Z,14.73
2018-07-12T03:45:34.885Z,13.90
2018-07-12T03:48:02.196Z,13.83
2018-07-12T03:50:29.539Z,15.87
2018-07-12T03:52:56.856Z,15.40
2018-07-12T03:55:24.200Z,15.50
2018-07-12T03:57:51.535Z,14.97
2018-07-12T04:00:18.918Z,15.27
2018-07-12T04:02:46.822Z,15.63
2018-07-12T04:05:14.140Z,14.07
2018-07-12T04:07:41.500Z,14.97
2018-07-12T04:10:08.865Z,13.90
2018-07-12T04:12:36.215Z,14.87
2018-07-12T04:15:03.633Z,13.73
2018-07-12T04:17:31.993Z,13.43
2018-07-12T04:20:00.578Z,13.77
2018-07-12T04:22:29.245Z,12.93
2018-07-12T04:24:56.570Z,12.90
2018-07-12T04:27:24.423Z,13.93
2018-07-12T04:29:53.029Z,12.30
2018-07-12T04:32:20.379Z,13.03
2018-07-12T04:34:48.731Z,11.43
2018-07-12T04:37:16.316Z,11.47
2018-07-12T04:39:43.722Z,11.83
2018-07-12T04:42:11.051Z,11.13
2018-07-12T04:44:38.362Z,12.40
2018-07-12T04:47:05.792Z,11.47
2018-07-12T04:49:33.155Z,13.40
2018-07-12T04:52:00.998Z,10.43
2018-07-12T04:54:28.990Z,11.63
2018-07-12T04:56:56.323Z,10.73
2018-07-12T04:59:23.671Z,10.40
2018-07-12T05:01:51.142Z,9.23
2018-07-12T05:04:18.490Z,8.33
2018-07-12T05:06:45.874Z,8.33
2018-07-12T05:09:13.209Z,7.80
2018-07-12T05:11:40.680Z,7.90
2018-07-12T05:14:08.040Z,7.90
2018-07-12T05:16:35.460Z,8.17
2018-07-12T05:19:02.799Z,7.30
2018-07-12T05:21:30.147Z,8.60
2018-07-12T05:23:57.477Z,7.60
2018-07-12T05:26:24.803Z,8.50
2018-07-12T05:28:52.444Z,7.87
2018-07-12T05:31:20.050Z,6.73
2018-07-12T05:33:47.395Z,7.40
2018-07-12T05:36:27.585Z,7.27
2018-07-12T05:38:56.225Z,7.27
2018-07-12T05:41:24.650Z,7.67
2018-07-12T05:43:53.102Z,7.90
2018-07-12T05:46:21.598Z,7.30
2018-07-12T05:48:50.194Z,7.47
2018-07-12T05:51:18.847Z,7.97
2018-07-12T05:53:47.305Z,7.80
2018-07-12T05:56:15.907Z,7.70
2018-07-12T05:58:44.462Z,8.20
2018-07-12T06:01:24.903Z,8.47
2018-07-12T06:03:53.408Z,7.77
2018-07-12T06:06:21.852Z,7.27
2018-07-12T06:08:50.452Z,7.63
2018-07-12T06:11:19.516Z,7.70
2018-07-12T06:13:48.009Z,6.90
2018-07-12T06:16:16.527Z,6.43
2018-07-12T06:18:45.000Z,6.87
2018-07-12T06:21:13.612Z,7.17
2018-07-12T06:23:42.852Z,5.80
2018-07-12T06:26:11.334Z,6.77
2018-07-12T06:28:40.433Z,6.83
2018-07-12T06:31:09.101Z,6.70
2018-07-12T06:33:38.663Z,6.13
2018-07-12T06:36:07.191Z,6.37
2018-07-12T06:38:35.633Z,6.43
2018-07-12T06:41:04.293Z,6.40
2018-07-12T06:43:32.844Z,6.47
2018-07-12T06:46:01.420Z,5.83
2018-07-12T06:48:29.878Z,6.33
2018-07-12T06:50:58.346Z,5.50
2018-07-12T06:53:26.792Z,6.40
2018-07-12T06:55:55.714Z,6.70
2018-07-12T06:58:24.769Z,6.53
2018-07-12T07:00:53.300Z,5.83
2018-07-12T07:03:22.815Z,5.23
2018-07-12T07:05:51.365Z,5.40
2018-07-12T07:08:21.242Z,5.30
2018-07-12T07:10:49.714Z,5.67
2018-07-12T07:13:18.201Z,6.00
2018-07-12T07:15:47.583Z,5.33
2018-07-12T07:18:18.492Z,4.57
2018-07-12T07:20:47.198Z,4.90
2018-07-12T07:23:16.093Z,5.57
2018-07-12T07:25:45.545Z,5.17
2018-07-12T07:28:14.192Z,5.53
2018-07-12T07:30:43.128Z,5.03
2018-07-12T07:33:11.719Z,4.40
2018-07-12T07:35:40.259Z,4.17
2018-07-12T07:38:08.842Z,4.50
2018-07-12T07:40:37.709Z,4.23
2018-07-12T07:43:07.236Z,4.27
2018-07-12T07:45:35.934Z,4.20
2018-07-12T07:48:04.381Z,3.50
2018-07-12T07:50:32.934Z,3.67
2018-07-12T07:53:01.434Z,3.73
2018-07-12T07:55:29.881Z,3.73
2018-07-12T07:57:58.384Z,4.47
2018-07-12T08:00:27.018Z,3.87
2018-07-12T08:02:55.485Z,4.13
2018-07-12T08:05:23.965Z,3.70
2018-07-12T08:07:52.656Z,3.73
2018-07-12T08:10:21.405Z,3.77
2018-07-12T08:12:50.108Z,4.03
2018-07-12T08:15:18.703Z,4.57
2018-07-12T08:17:46.941Z,4.10
2018-07-12T08:20:15.561Z,4.17
2018-07-12T08:22:44.170Z,4.33
2018-07-12T08:25:13.252Z,3.20
2018-07-12T08:27:52.947Z,3.60
2018-07-12T08:30:21.494Z,3.53
2018-07-12T08:32:49.997Z,3.47
2018-07-12T08:35:18.574Z,3.70
2018-07-12T08:37:47.135Z,3.20
2018-07-12T08:40:16.919Z,3.27
2018-07-12T08:42:45.598Z,3.67
2018-07-12T08:45:14.261Z,2.93
2018-07-12T08:47:42.642Z,2.80
2018-07-12T08:50:11.370Z,2.97
2018-07-12T08:52:39.921Z,3.00
2018-07-12T08:55:08.538Z,2.63
2018-07-12T08:57:38.084Z,3.07
2018-07-12T09:00:06.665Z,3.10
2018-07-12T09:02:35.294Z,3.30
2018-07-12T09:05:03.946Z,3.00
2018-07-12T09:07:32.613Z,2.57
2018-07-12T09:10:01.135Z,3.10
2018-07-12T09:12:29.652Z,2.73
2018-07-12T09:14:58.317Z,2.83
2018-07-12T09:17:26.913Z,2.70
2018-07-12T09:19:55.385Z,2.60
2018-07-12T09:22:24.006Z,2.47
2018-07-12T09:24:52.954Z,2.63
2018-07-12T09:27:21.552Z,2.70
2018-07-12T09:29:50.227Z,2.87
2018-07-12T09:32:18.859Z,2.50
2018-07-12T09:34:47.858Z,2.83
2018-07-12T09:37:16.503Z,2.97
2018-07-12T09:39:45.127Z,2.87
2018-07-12T09:42:14.335Z,2.67
2018-07-12T09:44:42.802Z,3.17
2018-07-12T09:47:11.309Z,2.63
2018-07-12T09:49:39.852Z,2.57
2018-07-12T09:52:12.765Z,2.73
2018-07-12T09:54:41.306Z,2.60
2018-07-12T09:57:21.645Z,2.40
2018-07-12T09:59:50.260Z,2.53
2018-07-12T10:02:24.483Z,2.53
2018-07-12T10:04:53.001Z,2.13
2018-07-12T10:07:26.909Z,2.30
2018-07-12T10:09:55.484Z,2.40
2018-07-12T10:12:32.922Z,2.20
2018-07-12T10:15:11.083Z,2.20
2018-07-12T10:17:43.603Z,2.17
2018-07-12T10:20:12.217Z,2.37
2018-07-12T10:22:40.829Z,2.47
2018-07-12T10:25:10.680Z,2.20
2018-07-12T10:27:39.851Z,2.30
2018-07-12T10:30:08.589Z,2.37
2018-07-12T10:32:37.582Z,2.33
2018-07-12T10:35:06.216Z,2.00
2018-07-12T10:37:34.825Z,2.00
2018-07-12T10:40:03.505Z,2.20
2018-07-12T10:42:31.987Z,2.00
2018-07-12T10:45:00.578Z,2.07
2018-07-12T10:47:29.089Z,2.20
2018-07-12T10:49:57.249Z,2.57
2018-07-12T10:52:25.807Z,2.20
2018-07-12T10:54:54.356Z,1.90
2018-07-12T10:57:22.951Z,2.33
2018-07-12T10:59:51.447Z,1.80
2018-07-12T11:02:20.682Z,1.90
2018-07-12T11:04:49.314Z,1.60
2018-07-12T11:07:17.793Z,2.17
2018-07-12T11:09:46.414Z,1.57
2018-07-12T11:12:14.637Z,2.00
2018-07-12T11:14:43.264Z,1.80
2018-07-12T11:17:11.814Z,2.03
2018-07-12T11:19:40.465Z,1.83
2018-07-12T11:22:09.065Z,2.10
2018-07-12T11:24:37.598Z,1.60
2018-07-12T11:27:09.357Z,2.13
2018-07-12T11:29:50.412Z,1.90
2018-07-12T11:32:19.200Z,1.87
2018-07-12T11:34:47.769Z,2.00
2018-07-12T11:37:21.388Z,2.10
2018-07-12T11:39:49.833Z,1.90
2018-07-12T11:42:19.249Z,2.37
2018-07-12T11:44:48.280Z,2.07
2018-07-12T11:47:16.730Z,2.00
2018-07-12T11:49:45.375Z,2.03
2018-07-12T11:52:14.026Z,2.10
2018-07-12T11:54:43.203Z,1.90
2018-07-12T11:57:11.991Z,2.03
2018-07-12T11:59:40.466Z,1.90
2018-07-12T12:02:09.070Z,2.07
2018-07-12T12:04:37.600Z,1.93
2018-07-12T12:07:06.134Z,2.10
2018-07-12T12:09:34.597Z,2.23
2018-07-12T12:12:03.132Z,1.80
2018-07-12T12:14:31.669Z,2.00
2018-07-12T12:17:00.136Z,2.00
2018-07-12T12:19:29.238Z,1.93
2018-07-12T12:21:58.189Z,2.07
2018-07-12T12:24:26.715Z,1.80
2018-07-12T12:26:55.144Z,1.80
2018-07-12T12:29:23.811Z,1.43
2018-07-12T12:31:52.392Z,1.97
2018-07-12T12:34:20.896Z,1.90
2018-07-12T12:36:49.434Z,2.53
2018-07-12T12:39:17.633Z,1.93
2018-07-12T12:41:46.083Z,2.40
2018-07-12T12:44:14.529Z,1.83
2018-07-12T12:46:43.544Z,1.80
2018-07-12T12:49:12.101Z,1.87
2018-07-12T12:51:40.682Z,2.30
2018-07-12T12:54:09.364Z,1.80
2018-07-12T12:56:37.805Z,1.90
2018-07-12T12:59:06.336Z,2.23
2018-07-12T13:01:34.927Z,1.90
2018-07-12T13:04:03.435Z,2.00
2018-07-12T13:06:32.353Z,2.63
2018-07-12T13:09:00.951Z,2.57
2018-07-12T13:11:29.414Z,2.30
2018-07-12T13:13:57.879Z,2.50
2018-07-12T13:16:26.354Z,2.40
2018-07-12T13:18:54.795Z,1.90
2018-07-12T13:21:23.229Z,2.50
2018-07-12T13:23:51.679Z,2.40
2018-07-12T13:26:20.109Z,2.47
2018-07-12T13:28:48.612Z,2.60
2018-07-12T13:31:17.128Z,2.03
2018-07-12T13:33:45.576Z,2.10
2018-07-12T13:36:14.202Z,2.10
2018-07-12T13:38:42.807Z,2.30
2018-07-12T13:41:11.357Z,2.50
2018-07-12T13:43:40.278Z,2.30
2018-07-12T13:46:08.761Z,2.13
2018-07-12T13:48:37.413Z,2.20
2018-07-12T13:51:05.919Z,2.40
2018-07-12T13:53:34.397Z,2.30
2018-07-12T13:56:02.973Z,2.20
2018-07-12T13:58:31.489Z,2.43
2018-07-12T14:00:59.979Z,2.30
2018-07-12T14:03:28.563Z,2.70
2018-07-12T14:05:57.145Z,2.20
2018-07-12T14:08:25.581Z,3.20
2018-07-12T14:10:54.849Z,2.13
2018-07-12T14:13:23.467Z,2.33
2018-07-12T14:15:52.179Z,2.60
2018-07-12T14:18:20.689Z,2.77
2018-07-12T14:20:49.138Z,2.40
2018-07-12T14:23:17.704Z,2.53
2018-07-12T14:25:46.220Z,2.60
2018-07-12T14:28:14.773Z,2.50
2018-07-12T14:30:43.336Z,2.27
2018-07-12T14:33:11.775Z,2.30
2018-07-12T14:35:40.258Z,2.10
2018-07-12T14:38:08.709Z,2.87
2018-07-12T14:40:37.272Z,2.70
2018-07-12T14:43:05.749Z,2.70
2018-07-12T14:45:34.262Z,2.50
2018-07-12T14:48:02.450Z,2.10
2018-07-12T14:50:30.925Z,2.60
2018-07-12T14:52:59.434Z,2.70
2018-07-12T14:55:27.897Z,2.57
2018-07-12T14:57:56.422Z,2.20
2018-07-12T15:00:24.914Z,2.47
2018-07-12T15:02:53.481Z,2.80
2018-07-12T15:05:21.960Z,2.90
2018-07-12T15:07:50.537Z,3.57
2018-07-12T15:10:19.144Z,2.90
2018-07-12T15:12:47.616Z,2.93
2018-07-12T15:15:16.117Z,3.00
2018-07-12T15:17:44.716Z,2.70
2018-07-12T15:20:13.210Z,2.20
2018-07-12T15:22:41.754Z,2.80
2018-07-12T15:25:10.232Z,2.90
2018-07-12T15:27:38.712Z,3.37
2018-07-12T15:30:07.169Z,3.37
2018-07-12T15:32:35.589Z,2.80
2018-07-12T15:35:04.052Z,2.40
2018-07-12T15:37:33.160Z,2.30
2018-07-12T15:40:02.391Z,2.80
2018-07-12T15:42:31.079Z,2.50
2018-07-12T15:44:59.627Z,2.70
2018-07-12T15:47:28.232Z,2.47
2018-07-12T15:49:56.867Z,2.90
2018-07-12T15:52:25.392Z,2.43
2018-07-12T15:54:54.538Z,2.87
2018-07-12T15:57:27.612Z,2.53
2018-07-12T15:59:56.173Z,2.40
2018-07-12T16:02:24.651Z,2.73
2018-07-12T16:04:53.295Z,2.87
2018-07-12T16:07:21.861Z,2.33
2018-07-12T16:09:50.453Z,2.53
2018-07-12T16:12:19.109Z,2.73
2018-07-12T16:14:52.320Z,2.40
2018-07-12T16:17:20.958Z,2.50
2018-07-12T16:19:49.157Z,2.73
2018-07-12T16:22:22.194Z,2.97
2018-07-12T16:24:50.706Z,3.17
2018-07-12T16:27:19.222Z,2.80
2018-07-12T16:29:47.781Z,2.53
2018-07-12T16:32:16.719Z,3.03
2018-07-12T16:34:45.235Z,2.93
2018-07-12T16:37:14.579Z,3.20
2018-07-12T16:39:43.111Z,2.67
2018-07-12T16:42:11.809Z,3.30
2018-07-12T16:44:40.592Z,3.00
2018-07-12T16:47:09.571Z,3.43
2018-07-12T16:49:38.278Z,2.40
2018-07-12T16:52:06.939Z,2.70
2018-07-12T16:54:35.517Z,2.80
2018-07-12T16:57:04.152Z,2.80
2018-07-12T16:59:32.739Z,2.70
2018-07-12T17:02:01.511Z,3.00
2018-07-12T17:04:30.050Z,3.00
2018-07-12T17:06:58.594Z,2.87
2018-07-12T17:09:26.797Z,3.10
2018-07-12T17:11:55.439Z,2.80
2018-07-12T17:14:24.035Z,3.10
2018-07-12T17:16:52.568Z,3.20
2018-07-12T17:19:21.801Z,2.77
2018-07-12T17:21:50.548Z,2.73
2018-07-12T17:24:19.045Z,2.97
2018-07-12T17:26:47.631Z,3.10
2018-07-12T17:29:16.251Z,2.53
2018-07-12T17:31:45.757Z,2.97
2018-07-12T17:34:14.303Z,2.60
2018-07-12T17:36:42.795Z,2.97
2018-07-12T17:39:11.333Z,2.90
2018-07-12T17:41:39.915Z,3.20
2018-07-12T17:44:09.104Z,3.30
2018-07-12T17:46:37.772Z,3.50
2018-07-12T17:49:06.358Z,3.30
2018-07-12T17:51:34.917Z,3.37
2018-07-12T17:54:03.617Z,3.33
2018-07-12T17:56:32.153Z,3.77
2018-07-12T17:59:00.763Z,3.57
2018-07-12T18:01:29.263Z,3.73
2018-07-12T18:03:57.776Z,3.60
2018-07-12T18:06:26.396Z,3.57
2018-07-12T18:08:55.009Z,3.73
2018-07-12T18:11:23.493Z,3.30
2018-07-12T18:13:51.983Z,3.80
2018-07-12T18:16:20.555Z,3.77
2018-07-12T18:18:49.132Z,4.00
2018-07-12T18:21:17.666Z,3.70
2018-07-12T18:23:46.747Z,3.70
2018-07-12T18:26:15.256Z,3.50
2018-07-12T18:28:43.779Z,3.67
2018-07-12T18:31:12.276Z,4.00
2018-07-12T18:33:45.039Z,3.60
2018-07-12T18:36:13.672Z,3.23
2018-07-12T18:38:42.265Z,3.60
2018-07-12T18:41:10.891Z,3.10
2018-07-12T18:43:46.092Z,3.67
2018-07-12T18:46:14.617Z,4.20
2018-07-12T18:48:43.146Z,3.87
2018-07-12T18:51:11.686Z,4.23
2018-07-12T18:53:41.283Z,3.90
2018-07-12T18:56:09.812Z,3.37
2018-07-12T18:58:38.336Z,3.60
2018-07-12T19:01:06.938Z,3.43
2018-07-12T19:03:35.547Z,3.87
2018-07-12T19:06:04.237Z,4.17
2018-07-12T19:08:32.943Z,3.13
2018-07-12T19:11:01.615Z,2.93
2018-07-12T19:13:30.182Z,3.30
2018-07-12T19:15:58.762Z,3.10
2018-07-12T19:18:27.409Z,3.60
2018-07-12T19:20:56.296Z,4.00
2018-07-12T19:23:24.945Z,4.00
2018-07-12T19:25:53.571Z,4.10
2018-07-12T19:28:22.298Z,3.87
2018-07-12T19:30:50.942Z,3.33
2018-07-12T19:33:19.967Z,3.63
2018-07-12T19:35:48.778Z,3.90
2018-07-12T19:38:17.473Z,3.13
2018-07-12T19:40:46.004Z,3.37
2018-07-12T19:43:14.759Z,3.77
2018-07-12T19:45:43.470Z,3.50
2018-07-12T19:48:12.036Z,4.07
2018-07-12T19:50:41.145Z,3.80
2018-07-12T19:53:10.108Z,3.70
2018-07-12T19:55:38.720Z,3.60
2018-07-12T19:58:07.200Z,3.50
2018-07-12T20:00:35.736Z,4.10
2018-07-12T20:03:04.400Z,4.00
2018-07-12T20:05:33.052Z,3.60
2018-07-12T20:08:01.502Z,3.87
2018-07-12T20:10:30.129Z,3.77
2018-07-12T20:12:58.655Z,4.33
2018-07-12T20:15:27.386Z,3.37
2018-07-12T20:17:56.737Z,3.60
2018-07-12T20:20:25.234Z,3.13
2018-07-12T20:22:53.748Z,3.20
2018-07-12T20:25:22.310Z,3.80
2018-07-12T20:27:50.850Z,3.87
2018-07-12T20:30:19.828Z,3.97
2018-07-12T20:32:48.497Z,3.70
2018-07-12T20:35:17.022Z,3.77
2018-07-12T20:37:45.564Z,3.77
2018-07-12T20:40:14.122Z,3.10
2018-07-12T20:42:42.613Z,3.90
2018-07-12T20:45:11.246Z,3.87
2018-07-12T20:47:39.895Z,3.50
2018-07-12T20:50:08.404Z,4.00
2018-07-12T20:52:37.019Z,3.50
2018-07-12T20:55:05.553Z,3.60
2018-07-12T20:57:34.053Z,3.70
2018-07-12T21:00:02.590Z,3.87
2018-07-12T21:02:31.176Z,3.30
2018-07-12T21:04:59.648Z,4.07
2018-07-12T21:07:28.193Z,3.70
2018-07-12T21:09:56.793Z,3.50
2018-07-12T21:12:25.256Z,4.33
2018-07-12T21:14:54.007Z,4.20
2018-07-12T21:17:22.476Z,3.47
2018-07-12T21:19:50.956Z,3.70
2018-07-12T21:22:19.508Z,4.00
2018-07-12T21:24:48.228Z,4.00
2018-07-12T21:27:16.766Z,4.57
2018-07-12T21:29:45.257Z,4.23
2018-07-12T21:32:13.875Z,4.17
2018-07-12T21:34:42.417Z,3.80
2018-07-12T21:37:10.961Z,4.37
2018-07-12T21:39:39.654Z,4.23
2018-07-12T21:42:08.299Z,4.40
2018-07-12T21:44:36.960Z,4.23
2018-07-12T21:47:05.475Z,4.60
2018-07-12T21:49:34.040Z,4.07
2018-07-12T21:52:02.629Z,4.00
2018-07-12T21:54:31.106Z,4.37
2018-07-12T21:56:59.716Z,4.07
2018-07-12T21:59:28.341Z,4.30
2018-07-12T22:01:57.665Z,4.10
2018-07-12T22:04:26.202Z,3.60
2018-07-12T22:07:09.369Z,5.07
2018-07-12T22:09:37.910Z,3.90
2018-07-12T22:12:06.406Z,4.80
2018-07-12T22:14:35.133Z,4.50
2018-07-12T22:17:03.621Z,4.70
2018-07-12T22:19:32.154Z,4.47
2018-07-12T22:22:00.687Z,4.07
2018-07-12T22:24:29.337Z,3.97
2018-07-12T22:26:57.787Z,3.87
2018-07-12T22:29:26.247Z,4.40
2018-07-12T22:31:54.715Z,4.87
2018-07-12T22:34:23.174Z,4.63
2018-07-12T22:36:52.058Z,4.27
2018-07-12T22:39:20.847Z,4.53
2018-07-12T22:41:49.724Z,4.23
2018-07-12T22:44:18.056Z,4.23
2018-07-12T22:46:46.649Z,4.30
2018-07-12T22:49:15.136Z,3.93
2018-07-12T22:51:43.916Z,4.17
2018-07-12T22:54:12.825Z,3.93
2018-07-12T22:56:41.234Z,3.80
2018-07-12T22:59:10.005Z,4.13
2018-07-12T23:01:38.497Z,3.73
2018-07-12T23:04:06.967Z,4.03
2018-07-12T23:06:35.645Z,3.50
2018-07-12T23:09:05.281Z,3.53
2018-07-12T23:11:33.851Z,4.00
2018-07-12T23:14:02.388Z,3.60
2018-07-12T23:16:31.089Z,3.73
2018-07-12T23:18:59.855Z,3.60
2018-07-12T23:21:28.292Z,3.50
2018-07-12T23:23:56.748Z,3.27
2018-07-12T23:26:25.401Z,3.43
2018-07-12T23:28:54.221Z,3.83
2018-07-12T23:31:23.191Z,3.00
2018-07-12T23:33:51.719Z,3.63
2018-07-12T23:36:20.597Z,3.83
2018-07-12T23:38:49.201Z,3.00
2018-07-12T23:41:17.667Z,3.10
2018-07-12T23:43:46.195Z,3.50
2018-07-12T23:46:15.178Z,3.80
2018-07-12T23:48:43.644Z,3.67
2018-07-12T23:51:12.712Z,3.23
2018-07-12T23:53:41.001Z,3.60
2018-07-12T23:56:09.438Z,3.10
2018-07-12T23:58:37.992Z,3.23
